createdAt,value
2019-02-05T00:01:06.953Z,4.97
2019-02-05T00:03:50.887Z,4.95
2019-02-05T00:06:41.268Z,5.40
2019-02-05T00:09:24.642Z,5.05
2019-02-05T00:12:14.423Z,4.40
2019-02-05T00:14:57.018Z,5.10
2019-02-05T00:17:46.859Z,5.70
2019-02-05T00:20:19.152Z,5.45
2019-02-05T00:23:10.521Z,6.25
2019-02-05T00:26:06.339Z,5.55
2019-02-05T00:29:04.427Z,5.08
2019-02-05T00:31:54.532Z,5.67
2019-02-05T00:34:37.144Z,5.83
2019-02-05T00:37:26.995Z,5.55
2019-02-05T00:40:10.619Z,5.53
2019-02-05T00:43:00.692Z,5.55
2019-02-05T00:45:43.631Z,5.85
2019-02-05T00:48:33.692Z,5.60
2019-02-05T00:51:16.332Z,5.58
2019-02-05T00:54:25.462Z,5.70
2019-02-05T00:57:27.815Z,5.87
2019-02-05T00:59:58.881Z,5.30
2019-02-05T01:05:48.453Z,5.30
2019-02-05T01:08:52.172Z,6.10
2019-02-05T01:11:42.304Z,5.95
2019-02-05T01:14:26.398Z,5.33
2019-02-05T01:17:09.591Z,5.45
2019-02-05T01:19:59.379Z,5.53
2019-02-05T01:22:42.588Z,5.35
2019-02-05T01:25:32.610Z,6.20
2019-02-05T01:28:15.703Z,5.95
2019-02-05T01:31:05.604Z,5.05
2019-02-05T01:34:08.997Z,5.17
2019-02-05T01:36:59.015Z,6.67
2019-02-05T01:39:41.573Z,5.80
2019-02-05T01:42:31.350Z,5.10
2019-02-05T01:45:35.325Z,5.60
2019-02-05T01:48:25.108Z,5.78
2019-02-05T01:51:08.064Z,5.40
2019-02-05T01:53:58.103Z,5.20
2019-02-05T01:56:41.137Z,5.22
2019-02-05T01:59:30.827Z,5.17
2019-02-05T02:02:13.565Z,5.20
2019-02-05T02:05:03.695Z,4.72
2019-02-05T02:07:46.379Z,4.95
2019-02-05T02:10:36.816Z,5.42
2019-02-05T02:13:19.356Z,5.47
2019-02-05T02:16:01.993Z,5.58
2019-02-05T02:18:52.127Z,5.83
2019-02-05T02:21:36.826Z,4.85
2019-02-05T02:24:26.869Z,4.78
2019-02-05T02:27:09.798Z,5.00
2019-02-05T02:29:59.609Z,5.55
2019-02-05T02:32:42.683Z,5.92
2019-02-05T02:35:32.480Z,5.30
2019-02-05T02:38:14.783Z,5.58
2019-02-05T02:41:23.647Z,5.30
2019-02-05T02:44:07.078Z,5.97
2019-02-05T02:46:56.852Z,5.90
2019-02-05T02:49:39.229Z,5.00
2019-02-05T02:52:29.007Z,5.95
2019-02-05T02:55:11.594Z,5.55
2019-02-05T02:58:01.652Z,5.22
2019-02-05T03:01:01.739Z,4.65
2019-02-05T03:03:45.135Z,4.78
2019-02-05T03:06:35.706Z,4.97
2019-02-05T03:09:18.917Z,5.08
2019-02-05T03:12:09.036Z,4.58
2019-02-05T03:14:51.869Z,4.47
2019-02-05T03:17:41.647Z,5.05
2019-02-05T03:20:22.306Z,4.53
2019-02-05T03:23:12.458Z,5.70
2019-02-05T03:25:55.154Z,5.20
2019-02-05T03:28:44.905Z,4.85
2019-02-05T03:31:27.238Z,5.45
2019-02-05T03:34:17.281Z,4.62
2019-02-05T03:37:21.271Z,4.87
2019-02-05T03:40:32.076Z,4.92
2019-02-05T03:43:14.821Z,5.40
2019-02-05T03:46:05.136Z,5.35
2019-02-05T03:48:49.137Z,5.33
2019-02-05T03:51:59.592Z,4.10
2019-02-05T03:55:09.094Z,4.90
2019-02-05T03:58:40.980Z,5.03
2019-02-05T04:01:25.634Z,5.37
2019-02-05T04:04:54.227Z,4.60
2019-02-05T04:07:41.369Z,4.67
2019-02-05T04:10:45.565Z,5.25
2019-02-05T04:13:56.446Z,5.05
2019-02-05T04:16:44.061Z,5.12
2019-02-05T04:19:38.993Z,4.65
2019-02-05T04:22:49.831Z,5.50
2019-02-05T04:25:36.542Z,4.58
2019-02-05T04:28:49.264Z,4.72
2019-02-05T04:31:36.499Z,5.80
2019-02-05T04:35:06.710Z,4.50
2019-02-05T04:37:51.514Z,4.10
2019-02-05T04:41:20.123Z,4.90
2019-02-05T04:44:22.334Z,4.60
2019-02-05T04:47:50.911Z,4.85
2019-02-05T04:50:37.601Z,4.40
2019-02-05T04:54:07.820Z,5.15
2019-02-05T04:56:52.556Z,4.95
2019-02-05T05:00:03.714Z,4.95
2019-02-05T05:02:48.340Z,5.12
2019-02-05T05:06:17.238Z,5.35
2019-02-05T05:09:19.645Z,4.10
2019-02-05T05:12:09.439Z,4.85
2019-02-05T05:14:50.111Z,5.00
2019-02-05T05:17:40.220Z,4.65
2019-02-05T05:20:23.569Z,5.75
2019-02-05T05:23:13.423Z,5.87
2019-02-05T05:25:56.142Z,5.12
2019-02-05T05:28:45.924Z,5.97
2019-02-05T05:31:28.800Z,6.15
2019-02-05T05:34:18.556Z,5.25
2019-02-05T05:37:07.453Z,5.10
2019-02-05T05:39:58.873Z,5.60
2019-02-05T05:43:02.245Z,6.67
2019-02-05T05:45:52.336Z,6.05
2019-02-05T05:48:22.700Z,5.95
2019-02-05T05:51:12.447Z,6.65
2019-02-05T05:53:55.327Z,6.12
2019-02-05T05:56:45.076Z,6.20
2019-02-05T05:59:28.041Z,6.20
2019-02-05T06:05:40.852Z,6.17
2019-02-05T06:08:30.705Z,5.95
2019-02-05T06:11:32.702Z,5.55
2019-02-05T06:14:22.839Z,6.83
2019-02-05T06:17:05.107Z,5.72
2019-02-05T06:19:55.162Z,5.60
2019-02-05T06:22:37.623Z,5.72
2019-02-05T06:25:27.372Z,5.75
2019-02-05T06:28:10.058Z,5.65
2019-02-05T06:30:59.835Z,5.85
2019-02-05T06:33:42.985Z,5.00
2019-02-05T06:36:32.717Z,5.33
2019-02-05T06:39:36.744Z,5.47
2019-02-05T06:45:53.774Z,5.40
2019-02-05T06:48:43.872Z,4.95
2019-02-05T06:51:33.649Z,5.33
2019-02-05T06:54:37.342Z,5.28
2019-02-05T06:57:27.472Z,4.60
2019-02-05T07:00:14.384Z,5.45
2019-02-05T07:02:55.357Z,4.28
2019-02-05T07:05:45.368Z,6.10
2019-02-05T07:08:29.503Z,4.50
2019-02-05T07:14:20.968Z,5.42
2019-02-05T07:17:11.119Z,5.72
2019-02-05T07:19:54.295Z,6.10
2019-02-05T07:22:44.353Z,5.25
2019-02-05T07:25:27.070Z,5.40
2019-02-05T07:28:17.155Z,5.92
2019-02-05T07:30:59.495Z,6.08
2019-02-05T07:33:49.266Z,5.37
2019-02-05T07:36:32.706Z,6.05
2019-02-05T07:39:22.471Z,4.70
2019-02-05T07:42:05.073Z,5.62
2019-02-05T07:44:55.209Z,5.35
2019-02-05T07:47:37.618Z,5.28
2019-02-05T07:53:56.357Z,4.97
2019-02-05T07:56:39.538Z,5.17
2019-02-05T07:59:29.336Z,5.47
2019-02-05T08:02:12.322Z,5.15
2019-02-05T08:05:02.264Z,4.90
2019-02-05T08:07:44.975Z,5.85
2019-02-05T08:10:35.410Z,6.37
2019-02-05T08:13:37.237Z,6.00
2019-02-05T08:16:27.021Z,5.40
2019-02-05T08:19:10.109Z,6.05
2019-02-05T08:25:10.406Z,5.67
2019-02-05T08:28:00.531Z,6.17
2019-02-05T08:30:44.386Z,6.90
2019-02-05T08:33:34.473Z,6.17
2019-02-05T08:36:15.207Z,5.60
2019-02-05T08:38:58.291Z,6.08
2019-02-05T08:41:48.069Z,5.80
2019-02-05T08:44:52.103Z,5.60
2019-02-05T08:47:42.450Z,6.10
2019-02-05T08:50:28.268Z,6.20
2019-02-05T08:53:18.100Z,6.30
2019-02-05T08:56:22.226Z,5.40
2019-02-05T09:02:39.823Z,6.37
2019-02-05T09:05:30.181Z,6.50
2019-02-05T09:08:20.049Z,5.72
2019-02-05T09:11:02.296Z,5.87
2019-02-05T09:13:52.085Z,6.15
2019-02-05T09:16:34.451Z,6.95
2019-02-05T09:19:24.593Z,6.08
2019-02-05T09:22:07.483Z,6.10
2019-02-05T09:24:57.612Z,6.70
2019-02-05T09:27:42.839Z,5.90
2019-02-05T09:30:52.277Z,6.30
2019-02-05T09:33:35.314Z,6.15
2019-02-05T09:36:25.724Z,6.40
2019-02-05T09:39:08.332Z,6.70
2019-02-05T09:41:58.132Z,6.08
2019-02-05T09:45:02.718Z,6.55
2019-02-05T09:48:11.867Z,8.13
2019-02-05T09:51:14.344Z,6.85
2019-02-05T09:54:23.414Z,7.03
2019-02-05T09:57:06.258Z,6.92
2019-02-05T09:59:56.336Z,7.92
2019-02-05T10:02:38.681Z,6.65
2019-02-05T10:05:49.508Z,7.28
2019-02-05T10:08:30.472Z,7.75
2019-02-05T10:11:13.189Z,8.35
2019-02-05T10:14:03.216Z,7.67
2019-02-05T10:16:48.118Z,8.45
2019-02-05T10:23:04.659Z,6.97
2019-02-05T10:25:54.437Z,7.75
2019-02-05T10:28:58.079Z,8.28
2019-02-05T10:31:48.166Z,7.25
2019-02-05T10:34:34.418Z,8.90
2019-02-05T10:40:51.084Z,8.20
2019-02-05T10:43:41.238Z,8.70
2019-02-05T10:46:31.034Z,8.93
2019-02-05T10:49:15.805Z,8.38
2019-02-05T10:52:06.247Z,8.13
2019-02-05T10:54:49.064Z,8.15
2019-02-05T10:57:39.411Z,8.20
2019-02-05T11:00:26.085Z,8.10
2019-02-05T11:03:16.116Z,9.55
2019-02-05T11:06:01.041Z,9.00
2019-02-05T11:08:51.111Z,9.30
2019-02-05T11:11:34.367Z,8.90
2019-02-05T11:14:24.420Z,10.13
2019-02-05T11:17:07.307Z,8.90
2019-02-05T11:19:57.122Z,9.60
2019-02-05T11:22:40.289Z,9.73
2019-02-05T11:25:30.365Z,9.83
2019-02-05T11:28:15.288Z,9.78
2019-02-05T11:31:05.430Z,9.68
2019-02-05T11:33:50.230Z,10.13
2019-02-05T11:36:40.125Z,10.63
2019-02-05T11:39:23.145Z,11.60
2019-02-05T11:42:06.612Z,10.98
2019-02-05T11:44:56.407Z,9.85
2019-02-05T11:47:41.118Z,10.48
2019-02-05T11:50:52.178Z,9.90
2019-02-05T11:53:35.188Z,10.85
2019-02-05T11:56:25.290Z,9.85
2019-02-05T11:59:06.079Z,11.88
2019-02-05T12:01:56.151Z,10.65
2019-02-05T12:04:59.724Z,10.95
2019-02-05T12:07:50.946Z,11.68
2019-02-05T12:10:54.527Z,10.78
2019-02-05T12:13:44.355Z,11.63
2019-02-05T12:16:27.586Z,10.25
2019-02-05T12:22:19.727Z,11.15
2019-02-05T12:25:31.160Z,11.28
2019-02-05T12:28:13.950Z,11.33
2019-02-05T12:31:03.741Z,10.90
2019-02-05T12:33:46.282Z,10.82
2019-02-05T12:36:36.050Z,10.82
2019-02-05T12:39:19.284Z,11.22
2019-02-05T12:42:09.342Z,11.10
2019-02-05T12:44:53.155Z,10.55
2019-02-05T12:51:09.267Z,10.40
2019-02-05T12:53:59.056Z,10.43
2019-02-05T12:56:48.857Z,10.18
2019-02-05T12:59:31.312Z,11.15
2019-02-05T13:02:21.506Z,11.33
2019-02-05T13:05:23.201Z,9.85
2019-02-05T13:08:12.982Z,10.80
2019-02-05T13:10:57.244Z,10.45
2019-02-05T13:14:06.692Z,9.48
2019-02-05T13:16:49.329Z,11.53
2019-02-05T13:19:39.383Z,11.22
2019-02-05T13:22:41.114Z,11.22
2019-02-05T13:25:52.217Z,11.63
2019-02-05T13:28:35.447Z,11.40
2019-02-05T13:31:25.791Z,12.10
2019-02-05T13:34:08.559Z,10.00
2019-02-05T13:36:58.457Z,11.30
2019-02-05T13:39:41.015Z,10.38
2019-02-05T13:42:30.848Z,10.93
2019-02-05T13:45:13.768Z,10.78
2019-02-05T13:51:32.323Z,11.25
2019-02-05T13:54:22.388Z,11.65
2019-02-05T13:57:05.205Z,13.03
2019-02-05T13:59:55.075Z,11.85
2019-02-05T14:02:38.058Z,10.10
2019-02-05T14:05:29.454Z,10.70
2019-02-05T14:08:12.213Z,11.57
2019-02-05T14:11:02.376Z,11.20
2019-02-05T14:14:06.062Z,10.15
2019-02-05T14:16:55.850Z,10.70
2019-02-05T14:19:38.639Z,11.95
2019-02-05T14:22:28.399Z,11.53
2019-02-05T14:25:30.476Z,11.78
2019-02-05T14:28:20.262Z,11.97
2019-02-05T14:31:05.102Z,11.75
2019-02-05T14:33:54.882Z,13.28
2019-02-05T14:36:37.728Z,14.10
2019-02-05T14:39:27.520Z,13.22
2019-02-05T14:42:09.901Z,12.65
2019-02-05T14:44:59.691Z,11.63
2019-02-05T14:47:42.535Z,12.30
2019-02-05T14:50:53.616Z,10.93
2019-02-05T14:53:36.770Z,11.63
2019-02-05T14:56:26.967Z,11.85
2019-02-05T14:59:09.517Z,11.85
2019-02-05T15:01:59.298Z,11.53
2019-02-05T15:04:40.285Z,11.75
2019-02-05T15:07:11.369Z,11.90
2019-02-05T15:09:55.317Z,11.00
2019-02-05T15:12:45.413Z,12.15
2019-02-05T15:15:29.677Z,12.10
2019-02-05T15:18:19.826Z,12.03
2019-02-05T15:21:02.739Z,12.37
2019-02-05T15:27:19.766Z,12.95
2019-02-05T15:30:31.314Z,11.50
2019-02-05T15:36:37.928Z,12.70
2019-02-05T15:39:20.853Z,12.50
2019-02-05T15:42:10.631Z,11.97
2019-02-05T15:44:53.893Z,13.25
2019-02-05T15:47:43.710Z,14.10
2019-02-05T15:50:26.110Z,11.15
2019-02-05T15:53:35.311Z,14.43
2019-02-05T15:56:18.133Z,13.60
2019-02-05T15:59:07.915Z,14.85
2019-02-05T16:01:50.964Z,13.53
2019-02-05T16:04:59.841Z,13.50
2019-02-05T16:07:42.355Z,13.43
2019-02-05T16:10:32.513Z,13.10
2019-02-05T16:13:36.704Z,13.30
2019-02-05T16:16:26.527Z,13.38
2019-02-05T16:19:29.904Z,13.68
2019-02-05T16:22:12.696Z,13.10
2019-02-05T16:28:29.891Z,15.13
2019-02-05T16:31:20.004Z,13.45
2019-02-05T16:34:02.515Z,14.53
2019-02-05T16:36:52.581Z,13.50
2019-02-05T16:39:35.820Z,12.68
2019-02-05T16:42:25.613Z,13.60
2019-02-05T16:45:09.553Z,14.58
2019-02-05T16:47:59.635Z,14.60
2019-02-05T16:50:47.791Z,12.93
2019-02-05T16:53:39.710Z,14.45
2019-02-05T16:56:22.284Z,14.75
2019-02-05T16:59:12.086Z,16.10
2019-02-05T17:01:57.118Z,14.53
2019-02-05T17:04:46.775Z,14.70
2019-02-05T17:07:29.400Z,16.20
2019-02-05T17:10:40.164Z,14.05
2019-02-05T17:13:23.074Z,15.15
2019-02-05T17:16:12.859Z,15.80
2019-02-05T17:18:55.400Z,14.40
2019-02-05T17:21:38.412Z,15.08
2019-02-05T17:24:28.612Z,14.43
2019-02-05T17:27:11.612Z,15.43
2019-02-05T17:30:01.413Z,15.18
2019-02-05T17:32:42.066Z,13.58
2019-02-05T17:35:24.343Z,14.07
2019-02-05T17:38:14.464Z,14.47
2019-02-05T17:40:57.476Z,14.75
2019-02-05T17:43:50.226Z,15.00
2019-02-05T17:46:50.894Z,15.85
2019-02-05T17:49:40.652Z,14.65
2019-02-05T17:52:23.485Z,14.18
2019-02-05T17:55:34.306Z,15.60
2019-02-05T17:58:16.761Z,14.30
2019-02-05T18:04:28.918Z,15.15
2019-02-05T18:07:18.998Z,13.35
2019-02-05T18:10:30.183Z,13.30
2019-02-05T18:13:14.394Z,14.50
2019-02-05T18:16:25.250Z,15.48
2019-02-05T18:19:08.325Z,15.32
2019-02-05T18:22:17.331Z,16.65
2019-02-05T18:25:00.471Z,15.90
2019-02-05T18:27:51.214Z,17.02
2019-02-05T18:30:36.897Z,14.35
2019-02-05T18:33:26.978Z,15.75
2019-02-05T18:36:11.720Z,15.68
2019-02-05T18:39:21.167Z,15.50
2019-02-05T18:42:03.761Z,16.02
2019-02-05T18:45:12.659Z,15.15
2019-02-05T18:47:56.178Z,16.20
2019-02-05T18:50:46.685Z,13.70
2019-02-05T18:53:31.945Z,16.05
2019-02-05T18:59:16.767Z,13.88
2019-02-05T19:01:47.339Z,13.55
2019-02-05T19:04:18.210Z,13.78
2019-02-05T19:06:48.835Z,16.10
2019-02-05T19:09:19.242Z,15.40
2019-02-05T19:11:49.984Z,15.50
2019-02-05T19:14:23.200Z,15.40
2019-02-05T19:16:53.021Z,16.27
2019-02-05T19:19:23.376Z,14.75
2019-02-05T19:21:53.736Z,15.98
2019-02-05T19:24:31.482Z,15.83
2019-02-05T19:27:01.831Z,16.35
2019-02-05T19:29:32.730Z,13.98
2019-02-05T19:32:03.442Z,16.42
2019-02-05T19:34:33.805Z,17.82
2019-02-05T19:37:04.155Z,16.97
2019-02-05T19:39:34.523Z,16.75
2019-02-05T19:42:05.152Z,19.52
2019-02-05T19:44:37.264Z,18.48
2019-02-05T19:47:07.992Z,16.60
2019-02-05T19:49:38.391Z,15.75
2019-02-05T19:52:09.350Z,17.25
2019-02-05T19:54:39.713Z,15.32
2019-02-05T19:57:10.695Z,17.05
2019-02-05T19:59:41.698Z,16.55
2019-02-05T20:02:12.594Z,18.07
2019-02-05T20:04:43.354Z,17.60
2019-02-05T20:07:14.292Z,17.23
2019-02-05T20:09:44.647Z,17.40
2019-02-05T20:12:15.005Z,16.20
2019-02-05T20:14:45.965Z,16.37
2019-02-05T20:17:16.749Z,16.55
2019-02-05T20:19:47.079Z,17.90
2019-02-05T20:22:17.429Z,18.35
2019-02-05T20:24:47.805Z,16.85
2019-02-05T20:27:18.420Z,16.82
2019-02-05T20:29:49.384Z,17.95
2019-02-05T20:32:19.958Z,17.67
2019-02-05T20:34:50.584Z,17.45
2019-02-05T20:37:20.918Z,16.93
2019-02-05T20:39:51.653Z,17.40
2019-02-05T20:42:22.029Z,16.85
2019-02-05T20:44:52.563Z,16.45
2019-02-05T20:47:23.295Z,17.12
2019-02-05T20:49:53.647Z,16.77
2019-02-05T20:52:24.127Z,15.88
2019-02-05T20:54:54.728Z,19.15
2019-02-05T20:57:25.094Z,18.25
2019-02-05T20:59:55.791Z,17.00
2019-02-05T21:02:26.905Z,15.55
2019-02-05T21:04:57.495Z,17.02
2019-02-05T21:07:27.828Z,17.87
2019-02-05T21:09:58.586Z,15.58
2019-02-05T21:12:29.281Z,17.02
2019-02-05T21:14:59.887Z,17.25
2019-02-05T21:17:30.810Z,16.97
2019-02-05T21:20:01.621Z,17.40
2019-02-05T21:22:32.052Z,17.65
2019-02-05T21:25:02.726Z,16.70
2019-02-05T21:27:33.616Z,16.40
2019-02-05T21:30:09.960Z,17.15
2019-02-05T21:32:40.313Z,17.10
2019-02-05T21:35:11.063Z,18.32
2019-02-05T21:37:41.463Z,17.20
2019-02-05T21:40:25.770Z,17.62
2019-02-05T21:42:56.178Z,17.90
2019-02-05T21:45:31.430Z,18.42
2019-02-05T21:48:01.760Z,15.50
2019-02-05T21:50:32.409Z,16.80
2019-02-05T21:53:03.574Z,17.00
2019-02-05T21:55:34.364Z,16.35
2019-02-05T21:58:05.346Z,16.80
2019-02-05T22:00:38.704Z,16.95
2019-02-05T22:03:09.046Z,16.85
2019-02-05T22:05:39.403Z,15.63
2019-02-05T22:08:10.058Z,16.10
2019-02-05T22:10:40.543Z,16.32
2019-02-05T22:13:11.246Z,15.55
2019-02-05T22:15:41.601Z,16.65
2019-02-05T22:18:12.431Z,17.02
2019-02-05T22:20:42.831Z,16.00
2019-02-05T22:23:14.234Z,15.80
2019-02-05T22:25:45.145Z,17.57
2019-02-05T22:28:16.397Z,16.20
2019-02-05T22:30:47.106Z,16.15
2019-02-05T22:33:17.439Z,15.90
2019-02-05T22:35:47.784Z,15.68
2019-02-05T22:38:18.161Z,16.30
2019-02-05T22:40:48.527Z,14.30
2019-02-05T22:43:19.017Z,15.55
2019-02-05T22:45:49.349Z,15.95
2019-02-05T22:48:19.692Z,15.90
2019-02-05T22:50:50.380Z,14.95
2019-02-05T22:53:21.042Z,15.80
2019-02-05T22:55:51.721Z,16.77
2019-02-05T22:58:22.508Z,16.32
2019-02-05T23:01:18.370Z,15.30
2019-02-05T23:03:54.996Z,15.40
2019-02-05T23:06:48.043Z,16.70
2019-02-05T23:09:35.748Z,14.47
2019-02-05T23:12:22.791Z,15.43
2019-02-05T23:15:01.534Z,13.30
2019-02-05T23:17:32.154Z,14.50
2019-02-05T23:20:02.799Z,14.87
2019-02-05T23:22:33.158Z,14.65
2019-02-05T23:25:04.593Z,15.10
2019-02-05T23:27:35.220Z,15.83
2019-02-05T23:30:16.507Z,14.10
2019-02-05T23:32:46.858Z,15.23
2019-02-05T23:35:17.229Z,13.35
2019-02-05T23:37:47.889Z,14.33
2019-02-05T23:40:18.495Z,15.15
2019-02-05T23:42:48.831Z,13.80
2019-02-05T23:45:19.498Z,14.63
2019-02-05T23:47:50.107Z,14.00
2019-02-05T23:50:20.437Z,15.28
2019-02-05T23:52:51.177Z,14.85
2019-02-05T23:55:22.140Z,14.25
2019-02-05T23:57:52.753Z,13.58
